Sollitt, Illinois
Current Conditions -  °F | °C
As of 10:35 AM on Thursday 29 Jan 2015 (Local Time) from KIGQ Reporting Station
Overcast Overcast  
Wind Chill: 25°   Ceiling: 1600
Heat Index: 34°   Visibility: 7mi
Dew Point: 29°   Wind: 13mph
Humidity: 81%   Direction: 320°NW
Pressure: 29.88"   Gusts: 24mph
Location:  41.3435°N, 87.6008°W
Report Text: KIGQ 291635Z AUTO 32011G21KT 7SM OVC016 01/M02 A2988 RMK AO2 T00131017
Loading
Personal Weather Stations






























Interactive Weather Map New forecast layout! Learn more

10-Day Weather Forecast

Advertisements
Track Severe Weather on mobile